sensor_id;sensor_type;location;lat;lon;timestamp;P1;durP1;ratioP1;P2;durP2;ratioP2
70213;SDS011;60138;55.808;37.078;2022-07-29T00:01:55;6.90;;;2.57;;
70213;SDS011;60138;55.808;37.078;2022-07-29T00:04:21;6.55;;;2.80;;
70213;SDS011;60138;55.808;37.078;2022-07-29T00:06:46;4.63;;;2.37;;
70213;SDS011;60138;55.808;37.078;2022-07-29T00:09:12;7.40;;;3.45;;
70213;SDS011;60138;55.808;37.078;2022-07-29T00:11:38;12.10;;;3.57;;
70213;SDS011;60138;55.808;37.078;2022-07-29T00:14:04;9.70;;;3.10;;
70213;SDS011;60138;55.808;37.078;2022-07-29T00:16:29;7.53;;;3.00;;
70213;SDS011;60138;55.808;37.078;2022-07-29T00:18:55;5.85;;;2.72;;
70213;SDS011;60138;55.808;37.078;2022-07-29T00:21:21;4.80;;;3.50;;
70213;SDS011;60138;55.808;37.078;2022-07-29T00:23:46;6.95;;;3.33;;
70213;SDS011;60138;55.808;37.078;2022-07-29T00:26:12;5.27;;;3.20;;
70213;SDS011;60138;55.808;37.078;2022-07-29T00:28:38;6.18;;;2.80;;
70213;SDS011;60138;55.808;37.078;2022-07-29T00:31:04;7.83;;;3.17;;
70213;SDS011;60138;55.808;37.078;2022-07-29T00:33:29;5.95;;;3.33;;
70213;SDS011;60138;55.808;37.078;2022-07-29T00:35:55;7.90;;;3.47;;
70213;SDS011;60138;55.808;37.078;2022-07-29T00:38:20;6.88;;;2.88;;
70213;SDS011;60138;55.808;37.078;2022-07-29T00:40:46;5.83;;;2.70;;
70213;SDS011;60138;55.808;37.078;2022-07-29T00:43:13;6.75;;;3.10;;
70213;SDS011;60138;55.808;37.078;2022-07-29T00:45:39;11.35;;;3.53;;
70213;SDS011;60138;55.808;37.078;2022-07-29T00:48:06;12.00;;;3.33;;
70213;SDS011;60138;55.808;37.078;2022-07-29T00:50:32;5.68;;;3.20;;
70213;SDS011;60138;55.808;37.078;2022-07-29T00:52:58;10.32;;;2.97;;
70213;SDS011;60138;55.808;37.078;2022-07-29T00:55:24;6.10;;;2.55;;
70213;SDS011;60138;55.808;37.078;2022-07-29T00:57:50;7.10;;;3.37;;
70213;SDS011;60138;55.808;37.078;2022-07-29T01:00:21;6.53;;;3.08;;
70213;SDS011;60138;55.808;37.078;2022-07-29T01:02:49;8.80;;;3.78;;
70213;SDS011;60138;55.808;37.078;2022-07-29T01:05:15;5.87;;;3.20;;
70213;SDS011;60138;55.808;37.078;2022-07-29T01:07:43;8.18;;;3.60;;
70213;SDS011;60138;55.808;37.078;2022-07-29T01:10:10;5.95;;;3.53;;
70213;SDS011;60138;55.808;37.078;2022-07-29T01:12:39;6.15;;;2.72;;
70213;SDS011;60138;55.808;37.078;2022-07-29T01:15:06;7.10;;;3.30;;
70213;SDS011;60138;55.808;37.078;2022-07-29T01:17:38;7.93;;;4.05;;
70213;SDS011;60138;55.808;37.078;2022-07-29T01:22:58;5.43;;;3.65;;
70213;SDS011;60138;55.808;37.078;2022-07-29T01:25:32;7.63;;;3.10;;
70213;SDS011;60138;55.808;37.078;2022-07-29T01:31:16;5.78;;;3.22;;
70213;SDS011;60138;55.808;37.078;2022-07-29T01:33:49;4.15;;;3.28;;
70213;SDS011;60138;55.808;37.078;2022-07-29T01:36:25;6.43;;;3.78;;
70213;SDS011;60138;55.808;37.078;2022-07-29T01:39:02;4.40;;;3.30;;
70213;SDS011;60138;55.808;37.078;2022-07-29T01:41:49;7.07;;;3.30;;
70213;SDS011;60138;55.808;37.078;2022-07-29T01:44:43;6.78;;;3.22;;
70213;SDS011;60138;55.808;37.078;2022-07-29T01:47:19;9.05;;;3.72;;
70213;SDS011;60138;55.808;37.078;2022-07-29T01:49:49;5.32;;;3.50;;
70213;SDS011;60138;55.808;37.078;2022-07-29T01:52:21;6.70;;;3.88;;
70213;SDS011;60138;55.808;37.078;2022-07-29T01:54:54;10.63;;;4.00;;
70213;SDS011;60138;55.808;37.078;2022-07-29T01:57:25;6.43;;;3.50;;
70213;SDS011;60138;55.808;37.078;2022-07-29T01:59:54;5.57;;;3.33;;
70213;SDS011;60138;55.808;37.078;2022-07-29T02:02:22;5.63;;;3.42;;
70213;SDS011;60138;55.808;37.078;2022-07-29T02:04:49;7.43;;;3.30;;
70213;SDS011;60138;55.808;37.078;2022-07-29T02:07:18;6.97;;;2.97;;
70213;SDS011;60138;55.808;37.078;2022-07-29T02:09:46;5.47;;;3.08;;
70213;SDS011;60138;55.808;37.078;2022-07-29T02:12:14;6.88;;;3.92;;
70213;SDS011;60138;55.808;37.078;2022-07-29T02:14:50;9.25;;;3.53;;
70213;SDS011;60138;55.808;37.078;2022-07-29T02:17:21;5.93;;;3.42;;
70213;SDS011;60138;55.808;37.078;2022-07-29T02:19:50;6.73;;;3.67;;
70213;SDS011;60138;55.808;37.078;2022-07-29T02:22:18;8.13;;;4.47;;
70213;SDS011;60138;55.808;37.078;2022-07-29T02:24:45;8.48;;;4.18;;
70213;SDS011;60138;55.808;37.078;2022-07-29T02:27:12;9.43;;;4.20;;
70213;SDS011;60138;55.808;37.078;2022-07-29T02:29:40;7.28;;;4.38;;
70213;SDS011;60138;55.808;37.078;2022-07-29T02:32:06;6.40;;;3.08;;
70213;SDS011;60138;55.808;37.078;2022-07-29T02:34:35;6.55;;;3.05;;
70213;SDS011;60138;55.808;37.078;2022-07-29T02:37:03;16.23;;;4.07;;
70213;SDS011;60138;55.808;37.078;2022-07-29T02:39:30;6.63;;;3.58;;
70213;SDS011;60138;55.808;37.078;2022-07-29T02:42:07;7.10;;;3.60;;
70213;SDS011;60138;55.808;37.078;2022-07-29T02:44:35;8.63;;;4.30;;
70213;SDS011;60138;55.808;37.078;2022-07-29T02:52:51;6.38;;;3.58;;
70213;SDS011;60138;55.808;37.078;2022-07-29T02:55:26;8.80;;;3.88;;
70213;SDS011;60138;55.808;37.078;2022-07-29T02:58:05;9.85;;;3.40;;
70213;SDS011;60138;55.808;37.078;2022-07-29T03:00:51;7.97;;;3.58;;
70213;SDS011;60138;55.808;37.078;2022-07-29T03:03:18;9.03;;;3.43;;
70213;SDS011;60138;55.808;37.078;2022-07-29T03:05:45;7.85;;;3.58;;
70213;SDS011;60138;55.808;37.078;2022-07-29T03:08:11;7.45;;;3.85;;
70213;SDS011;60138;55.808;37.078;2022-07-29T03:10:43;6.03;;;3.57;;
70213;SDS011;60138;55.808;37.078;2022-07-29T03:13:10;7.55;;;3.47;;
70213;SDS011;60138;55.808;37.078;2022-07-29T03:15:37;7.80;;;4.20;;
70213;SDS011;60138;55.808;37.078;2022-07-29T03:18:03;10.05;;;4.05;;
70213;SDS011;60138;55.808;37.078;2022-07-29T03:20:31;7.70;;;3.88;;
70213;SDS011;60138;55.808;37.078;2022-07-29T03:22:57;9.53;;;3.70;;
70213;SDS011;60138;55.808;37.078;2022-07-29T03:25:22;9.70;;;3.83;;
70213;SDS011;60138;55.808;37.078;2022-07-29T03:27:48;8.53;;;4.30;;
70213;SDS011;60138;55.808;37.078;2022-07-29T03:30:14;8.82;;;3.97;;
70213;SDS011;60138;55.808;37.078;2022-07-29T03:32:40;5.87;;;3.63;;
70213;SDS011;60138;55.808;37.078;2022-07-29T03:35:06;7.25;;;3.22;;
70213;SDS011;60138;55.808;37.078;2022-07-29T03:37:32;6.07;;;3.55;;
70213;SDS011;60138;55.808;37.078;2022-07-29T03:39:58;7.10;;;3.30;;
70213;SDS011;60138;55.808;37.078;2022-07-29T03:42:28;7.40;;;3.22;;
70213;SDS011;60138;55.808;37.078;2022-07-29T03:44:57;7.05;;;3.83;;
70213;SDS011;60138;55.808;37.078;2022-07-29T03:47:26;10.20;;;3.63;;
70213;SDS011;60138;55.808;37.078;2022-07-29T03:49:54;8.52;;;3.08;;
70213;SDS011;60138;55.808;37.078;2022-07-29T03:52:31;5.13;;;3.90;;
70213;SDS011;60138;55.808;37.078;2022-07-29T03:54:57;8.57;;;3.45;;
70213;SDS011;60138;55.808;37.078;2022-07-29T03:57:27;4.60;;;3.15;;
70213;SDS011;60138;55.808;37.078;2022-07-29T03:59:53;8.88;;;3.55;;
70213;SDS011;60138;55.808;37.078;2022-07-29T04:02:20;4.97;;;2.40;;
70213;SDS011;60138;55.808;37.078;2022-07-29T04:04:46;6.63;;;3.00;;
70213;SDS011;60138;55.808;37.078;2022-07-29T04:07:12;5.35;;;3.53;;
70213;SDS011;60138;55.808;37.078;2022-07-29T04:09:39;7.40;;;3.20;;
70213;SDS011;60138;55.808;37.078;2022-07-29T04:12:05;7.57;;;3.45;;
70213;SDS011;60138;55.808;37.078;2022-07-29T04:14:31;4.60;;;2.60;;
70213;SDS011;60138;55.808;37.078;2022-07-29T04:16:58;8.23;;;3.13;;
70213;SDS011;60138;55.808;37.078;2022-07-29T04:19:24;6.47;;;3.25;;
70213;SDS011;60138;55.808;37.078;2022-07-29T04:21:49;6.88;;;3.03;;
70213;SDS011;60138;55.808;37.078;2022-07-29T04:24:15;6.30;;;2.43;;
70213;SDS011;60138;55.808;37.078;2022-07-29T04:26:41;4.53;;;2.13;;
70213;SDS011;60138;55.808;37.078;2022-07-29T04:29:06;5.65;;;2.63;;
70213;SDS011;60138;55.808;37.078;2022-07-29T04:31:32;5.57;;;2.50;;
70213;SDS011;60138;55.808;37.078;2022-07-29T04:33:58;5.53;;;2.42;;
70213;SDS011;60138;55.808;37.078;2022-07-29T04:36:23;6.43;;;2.80;;
70213;SDS011;60138;55.808;37.078;2022-07-29T04:38:49;9.00;;;2.60;;
70213;SDS011;60138;55.808;37.078;2022-07-29T04:41:14;4.10;;;1.80;;
70213;SDS011;60138;55.808;37.078;2022-07-29T04:43:40;4.37;;;2.60;;
70213;SDS011;60138;55.808;37.078;2022-07-29T04:46:06;4.68;;;2.25;;
70213;SDS011;60138;55.808;37.078;2022-07-29T04:48:32;5.47;;;2.50;;
70213;SDS011;60138;55.808;37.078;2022-07-29T04:50:58;9.05;;;5.28;;
70213;SDS011;60138;55.808;37.078;2022-07-29T04:53:24;4.97;;;2.83;;
70213;SDS011;60138;55.808;37.078;2022-07-29T04:55:50;4.13;;;2.22;;
70213;SDS011;60138;55.808;37.078;2022-07-29T04:58:16;6.40;;;3.40;;
70213;SDS011;60138;55.808;37.078;2022-07-29T05:00:42;10.73;;;3.00;;
70213;SDS011;60138;55.808;37.078;2022-07-29T05:03:07;4.30;;;2.53;;
70213;SDS011;60138;55.808;37.078;2022-07-29T05:05:33;10.20;;;2.10;;
70213;SDS011;60138;55.808;37.078;2022-07-29T05:07:59;7.13;;;2.53;;
70213;SDS011;60138;55.808;37.078;2022-07-29T05:10:24;5.03;;;2.45;;
70213;SDS011;60138;55.808;37.078;2022-07-29T05:12:50;4.97;;;2.27;;
70213;SDS011;60138;55.808;37.078;2022-07-29T05:15:16;8.98;;;2.95;;
70213;SDS011;60138;55.808;37.078;2022-07-29T05:17:41;3.30;;;2.30;;
70213;SDS011;60138;55.808;37.078;2022-07-29T05:20:07;6.13;;;2.50;;
70213;SDS011;60138;55.808;37.078;2022-07-29T05:22:33;8.18;;;2.47;;
70213;SDS011;60138;55.808;37.078;2022-07-29T05:24:59;4.70;;;2.70;;
70213;SDS011;60138;55.808;37.078;2022-07-29T05:27:24;5.20;;;2.10;;
70213;SDS011;60138;55.808;37.078;2022-07-29T05:29:50;6.90;;;2.30;;
70213;SDS011;60138;55.808;37.078;2022-07-29T05:32:16;5.05;;;3.10;;
70213;SDS011;60138;55.808;37.078;2022-07-29T05:34:41;11.37;;;2.40;;
70213;SDS011;60138;55.808;37.078;2022-07-29T05:37:07;5.47;;;2.53;;
70213;SDS011;60138;55.808;37.078;2022-07-29T05:39:33;6.38;;;3.17;;
70213;SDS011;60138;55.808;37.078;2022-07-29T05:41:59;6.40;;;2.50;;
70213;SDS011;60138;55.808;37.078;2022-07-29T05:44:24;5.00;;;2.10;;
70213;SDS011;60138;55.808;37.078;2022-07-29T05:46:50;3.87;;;1.93;;
70213;SDS011;60138;55.808;37.078;2022-07-29T05:49:16;4.35;;;2.30;;
70213;SDS011;60138;55.808;37.078;2022-07-29T05:51:41;7.97;;;2.73;;
70213;SDS011;60138;55.808;37.078;2022-07-29T05:54:07;7.20;;;2.60;;
70213;SDS011;60138;55.808;37.078;2022-07-29T05:56:33;3.80;;;2.43;;
70213;SDS011;60138;55.808;37.078;2022-07-29T05:58:58;6.50;;;2.25;;
70213;SDS011;60138;55.808;37.078;2022-07-29T06:01:24;4.43;;;2.08;;
70213;SDS011;60138;55.808;37.078;2022-07-29T06:03:50;7.13;;;2.40;;
70213;SDS011;60138;55.808;37.078;2022-07-29T06:06:15;3.63;;;1.80;;
70213;SDS011;60138;55.808;37.078;2022-07-29T06:08:41;6.70;;;2.43;;
70213;SDS011;60138;55.808;37.078;2022-07-29T06:11:07;5.95;;;1.95;;
70213;SDS011;60138;55.808;37.078;2022-07-29T06:13:32;2.43;;;1.80;;
70213;SDS011;60138;55.808;37.078;2022-07-29T06:15:58;4.88;;;1.95;;
70213;SDS011;60138;55.808;37.078;2022-07-29T06:18:24;7.53;;;1.67;;
70213;SDS011;60138;55.808;37.078;2022-07-29T06:20:50;3.35;;;1.30;;
70213;SDS011;60138;55.808;37.078;2022-07-29T06:23:16;4.05;;;1.45;;
70213;SDS011;60138;55.808;37.078;2022-07-29T06:25:42;6.53;;;1.98;;
70213;SDS011;60138;55.808;37.078;2022-07-29T06:28:08;4.60;;;1.80;;
70213;SDS011;60138;55.808;37.078;2022-07-29T06:30:34;4.28;;;1.75;;
70213;SDS011;60138;55.808;37.078;2022-07-29T06:33:00;4.47;;;2.17;;
70213;SDS011;60138;55.808;37.078;2022-07-29T06:35:25;4.22;;;1.73;;
70213;SDS011;60138;55.808;37.078;2022-07-29T06:37:51;5.87;;;2.13;;
70213;SDS011;60138;55.808;37.078;2022-07-29T06:40:17;6.18;;;1.73;;
70213;SDS011;60138;55.808;37.078;2022-07-29T06:42:43;7.90;;;2.30;;
70213;SDS011;60138;55.808;37.078;2022-07-29T06:45:09;7.07;;;2.00;;
70213;SDS011;60138;55.808;37.078;2022-07-29T06:47:36;3.75;;;1.80;;
70213;SDS011;60138;55.808;37.078;2022-07-29T06:50:02;12.07;;;2.33;;
70213;SDS011;60138;55.808;37.078;2022-07-29T06:52:29;5.20;;;1.75;;
70213;SDS011;60138;55.808;37.078;2022-07-29T06:54:54;6.30;;;1.70;;
70213;SDS011;60138;55.808;37.078;2022-07-29T06:57:20;4.10;;;1.70;;
70213;SDS011;60138;55.808;37.078;2022-07-29T06:59:46;5.22;;;1.85;;
70213;SDS011;60138;55.808;37.078;2022-07-29T07:02:12;19.58;;;5.53;;
70213;SDS011;60138;55.808;37.078;2022-07-29T07:04:38;10.23;;;3.15;;
70213;SDS011;60138;55.808;37.078;2022-07-29T07:07:04;3.63;;;1.40;;
70213;SDS011;60138;55.808;37.078;2022-07-29T07:09:30;4.72;;;1.63;;
70213;SDS011;60138;55.808;37.078;2022-07-29T07:11:55;5.37;;;1.70;;
70213;SDS011;60138;55.808;37.078;2022-07-29T07:14:21;3.53;;;1.27;;
70213;SDS011;60138;55.808;37.078;2022-07-29T07:16:47;5.07;;;1.80;;
70213;SDS011;60138;55.808;37.078;2022-07-29T07:19:12;7.88;;;1.77;;
70213;SDS011;60138;55.808;37.078;2022-07-29T07:21:38;3.27;;;1.60;;
70213;SDS011;60138;55.808;37.078;2022-07-29T07:24:04;3.83;;;1.50;;
70213;SDS011;60138;55.808;37.078;2022-07-29T07:26:30;11.68;;;2.00;;
70213;SDS011;60138;55.808;37.078;2022-07-29T07:28:56;5.00;;;1.57;;
70213;SDS011;60138;55.808;37.078;2022-07-29T07:31:22;2.70;;;1.42;;
70213;SDS011;60138;55.808;37.078;2022-07-29T07:33:47;5.63;;;1.57;;
70213;SDS011;60138;55.808;37.078;2022-07-29T07:36:13;3.38;;;1.20;;
70213;SDS011;60138;55.808;37.078;2022-07-29T07:38:39;3.97;;;1.53;;
70213;SDS011;60138;55.808;37.078;2022-07-29T07:41:04;2.90;;;1.60;;
70213;SDS011;60138;55.808;37.078;2022-07-29T07:43:30;3.10;;;1.07;;
70213;SDS011;60138;55.808;37.078;2022-07-29T07:45:56;4.03;;;1.67;;
70213;SDS011;60138;55.808;37.078;2022-07-29T07:48:22;12.60;;;2.83;;
70213;SDS011;60138;55.808;37.078;2022-07-29T07:50:47;10.07;;;2.30;;
70213;SDS011;60138;55.808;37.078;2022-07-29T07:53:13;6.00;;;1.80;;
70213;SDS011;60138;55.808;37.078;2022-07-29T07:55:42;9.37;;;2.13;;
70213;SDS011;60138;55.808;37.078;2022-07-29T07:58:09;4.00;;;1.60;;
70213;SDS011;60138;55.808;37.078;2022-07-29T08:00:35;3.47;;;1.10;;
70213;SDS011;60138;55.808;37.078;2022-07-29T08:03:01;3.33;;;1.33;;
70213;SDS011;60138;55.808;37.078;2022-07-29T08:05:29;3.20;;;1.17;;
70213;SDS011;60138;55.808;37.078;2022-07-29T08:07:55;3.40;;;1.23;;
70213;SDS011;60138;55.808;37.078;2022-07-29T08:10:21;4.03;;;1.33;;
70213;SDS011;60138;55.808;37.078;2022-07-29T08:12:47;4.70;;;1.87;;
70213;SDS011;60138;55.808;37.078;2022-07-29T08:15:12;6.35;;;1.30;;
70213;SDS011;60138;55.808;37.078;2022-07-29T08:17:38;3.00;;;1.10;;
70213;SDS011;60138;55.808;37.078;2022-07-29T08:20:04;1.95;;;1.10;;
70213;SDS011;60138;55.808;37.078;2022-07-29T08:22:30;3.37;;;1.13;;
70213;SDS011;60138;55.808;37.078;2022-07-29T08:24:56;4.75;;;1.23;;
70213;SDS011;60138;55.808;37.078;2022-07-29T08:27:22;4.43;;;1.30;;
70213;SDS011;60138;55.808;37.078;2022-07-29T08:29:47;7.63;;;1.33;;
70213;SDS011;60138;55.808;37.078;2022-07-29T08:32:13;3.77;;;1.40;;
70213;SDS011;60138;55.808;37.078;2022-07-29T08:34:38;2.05;;;1.38;;
70213;SDS011;60138;55.808;37.078;2022-07-29T08:37:04;1.73;;;0.70;;
70213;SDS011;60138;55.808;37.078;2022-07-29T08:39:30;5.00;;;1.25;;
70213;SDS011;60138;55.808;37.078;2022-07-29T08:41:56;3.43;;;1.10;;
70213;SDS011;60138;55.808;37.078;2022-07-29T08:44:21;1.83;;;1.10;;
70213;SDS011;60138;55.808;37.078;2022-07-29T08:46:47;8.87;;;3.13;;
70213;SDS011;60138;55.808;37.078;2022-07-29T08:49:14;11.07;;;2.42;;
70213;SDS011;60138;55.808;37.078;2022-07-29T08:51:40;15.93;;;2.30;;
70213;SDS011;60138;55.808;37.078;2022-07-29T08:54:06;4.75;;;1.33;;
70213;SDS011;60138;55.808;37.078;2022-07-29T08:56:33;4.23;;;1.23;;
70213;SDS011;60138;55.808;37.078;2022-07-29T08:58:59;2.95;;;0.90;;
70213;SDS011;60138;55.808;37.078;2022-07-29T09:01:29;1.92;;;1.05;;
70213;SDS011;60138;55.808;37.078;2022-07-29T09:03:57;5.00;;;1.10;;
70213;SDS011;60138;55.808;37.078;2022-07-29T09:06:24;3.17;;;1.63;;
70213;SDS011;60138;55.808;37.078;2022-07-29T09:08:54;4.23;;;1.40;;
70213;SDS011;60138;55.808;37.078;2022-07-29T09:11:25;2.53;;;0.95;;
70213;SDS011;60138;55.808;37.078;2022-07-29T09:13:51;3.92;;;1.58;;
70213;SDS011;60138;55.808;37.078;2022-07-29T09:16:16;3.63;;;1.13;;
70213;SDS011;60138;55.808;37.078;2022-07-29T09:18:43;2.30;;;1.20;;
70213;SDS011;60138;55.808;37.078;2022-07-29T09:21:11;2.13;;;1.17;;
70213;SDS011;60138;55.808;37.078;2022-07-29T09:23:38;5.40;;;0.90;;
70213;SDS011;60138;55.808;37.078;2022-07-29T09:26:05;4.07;;;1.70;;
70213;SDS011;60138;55.808;37.078;2022-07-29T09:28:31;3.90;;;1.50;;
70213;SDS011;60138;55.808;37.078;2022-07-29T09:30:57;2.00;;;0.90;;
70213;SDS011;60138;55.808;37.078;2022-07-29T09:33:24;2.47;;;1.07;;
70213;SDS011;60138;55.808;37.078;2022-07-29T09:38:33;9.13;;;2.05;;
70213;SDS011;60138;55.808;37.078;2022-07-29T09:41:02;11.02;;;1.98;;
70213;SDS011;60138;55.808;37.078;2022-07-29T09:43:29;4.38;;;1.77;;
70213;SDS011;60138;55.808;37.078;2022-07-29T09:45:55;3.53;;;0.70;;
70213;SDS011;60138;55.808;37.078;2022-07-29T09:48:22;2.60;;;1.05;;
70213;SDS011;60138;55.808;37.078;2022-07-29T09:50:50;2.42;;;1.08;;
70213;SDS011;60138;55.808;37.078;2022-07-29T09:53:37;6.13;;;1.13;;
70213;SDS011;60138;55.808;37.078;2022-07-29T09:56:03;8.18;;;1.30;;
70213;SDS011;60138;55.808;37.078;2022-07-29T09:58:30;2.75;;;1.08;;
70213;SDS011;60138;55.808;37.078;2022-07-29T10:00:56;8.52;;;1.15;;
70213;SDS011;60138;55.808;37.078;2022-07-29T10:03:22;2.42;;;1.23;;
70213;SDS011;60138;55.808;37.078;2022-07-29T10:06:04;4.63;;;1.20;;
70213;SDS011;60138;55.808;37.078;2022-07-29T10:08:34;4.22;;;0.98;;
70213;SDS011;60138;55.808;37.078;2022-07-29T10:11:11;1.27;;;0.70;;
70213;SDS011;60138;55.808;37.078;2022-07-29T10:13:41;2.85;;;1.27;;
70213;SDS011;60138;55.808;37.078;2022-07-29T10:16:08;3.83;;;0.93;;
70213;SDS011;60138;55.808;37.078;2022-07-29T10:18:34;1.80;;;1.10;;
70213;SDS011;60138;55.808;37.078;2022-07-29T10:21:00;1.63;;;0.82;;
70213;SDS011;60138;55.808;37.078;2022-07-29T10:23:29;3.70;;;1.08;;
70213;SDS011;60138;55.808;37.078;2022-07-29T10:25:56;3.07;;;0.70;;
70213;SDS011;60138;55.808;37.078;2022-07-29T10:28:22;3.53;;;0.90;;
70213;SDS011;60138;55.808;37.078;2022-07-29T10:30:48;2.42;;;1.33;;
70213;SDS011;60138;55.808;37.078;2022-07-29T10:44:49;1.90;;;0.70;;
70213;SDS011;60138;55.808;37.078;2022-07-29T10:47:23;4.72;;;1.05;;
70213;SDS011;60138;55.808;37.078;2022-07-29T10:49:59;1.60;;;0.90;;
70213;SDS011;60138;55.808;37.078;2022-07-29T10:55:33;2.28;;;0.70;;
70213;SDS011;60138;55.808;37.078;2022-07-29T11:00:41;1.90;;;0.90;;
70213;SDS011;60138;55.808;37.078;2022-07-29T11:03:07;2.23;;;0.70;;
70213;SDS011;60138;55.808;37.078;2022-07-29T11:05:51;2.67;;;0.63;;
70213;SDS011;60138;55.808;37.078;2022-07-29T11:08:21;2.88;;;0.82;;
70213;SDS011;60138;55.808;37.078;2022-07-29T11:10:48;4.93;;;1.08;;
70213;SDS011;60138;55.808;37.078;2022-07-29T11:16:08;3.20;;;1.20;;
70213;SDS011;60138;55.808;37.078;2022-07-29T11:18:33;3.50;;;0.87;;
70213;SDS011;60138;55.808;37.078;2022-07-29T11:20:59;2.13;;;0.90;;
70213;SDS011;60138;55.808;37.078;2022-07-29T11:23:27;3.28;;;0.80;;
70213;SDS011;60138;55.808;37.078;2022-07-29T11:28:35;2.50;;;1.27;;
70213;SDS011;60138;55.808;37.078;2022-07-29T11:31:04;2.80;;;0.90;;
70213;SDS011;60138;55.808;37.078;2022-07-29T11:33:33;5.10;;;0.90;;
70213;SDS011;60138;55.808;37.078;2022-07-29T11:38:35;2.45;;;0.95;;
70213;SDS011;60138;55.808;37.078;2022-07-29T11:41:34;7.70;;;1.10;;
70213;SDS011;60138;55.808;37.078;2022-07-29T11:43:57;1.43;;;0.70;;
70213;SDS011;60138;55.808;37.078;2022-07-29T11:49:26;2.45;;;0.82;;
70213;SDS011;60138;55.808;37.078;2022-07-29T11:51:52;3.03;;;1.35;;
70213;SDS011;60138;55.808;37.078;2022-07-29T11:54:53;2.90;;;1.42;;
70213;SDS011;60138;55.808;37.078;2022-07-29T11:57:18;2.93;;;0.80;;
70213;SDS011;60138;55.808;37.078;2022-07-29T11:59:45;3.13;;;0.85;;
70213;SDS011;60138;55.808;37.078;2022-07-29T12:02:12;2.38;;;0.80;;
70213;SDS011;60138;55.808;37.078;2022-07-29T12:04:49;1.95;;;1.00;;
70213;SDS011;60138;55.808;37.078;2022-07-29T12:07:18;1.50;;;0.60;;
70213;SDS011;60138;55.808;37.078;2022-07-29T12:09:51;1.57;;;0.40;;
70213;SDS011;60138;55.808;37.078;2022-07-29T12:12:17;3.10;;;0.60;;
70213;SDS011;60138;55.808;37.078;2022-07-29T12:14:44;4.35;;;0.68;;
70213;SDS011;60138;55.808;37.078;2022-07-29T12:17:24;2.22;;;0.40;;
70213;SDS011;60138;55.808;37.078;2022-07-29T12:19:58;12.38;;;1.40;;
70213;SDS011;60138;55.808;37.078;2022-07-29T12:22:29;2.90;;;0.67;;
70213;SDS011;60138;55.808;37.078;2022-07-29T12:25:01;14.07;;;1.20;;
70213;SDS011;60138;55.808;37.078;2022-07-29T12:27:28;1.90;;;0.70;;
70213;SDS011;60138;55.808;37.078;2022-07-29T12:29:55;1.90;;;0.60;;
70213;SDS011;60138;55.808;37.078;2022-07-29T12:32:39;1.67;;;0.60;;
70213;SDS011;60138;55.808;37.078;2022-07-29T12:35:08;2.87;;;0.63;;
70213;SDS011;60138;55.808;37.078;2022-07-29T12:37:37;2.45;;;0.60;;
70213;SDS011;60138;55.808;37.078;2022-07-29T12:40:05;4.32;;;0.90;;
70213;SDS011;60138;55.808;37.078;2022-07-29T12:42:31;2.25;;;0.70;;
70213;SDS011;60138;55.808;37.078;2022-07-29T12:44:58;3.53;;;1.02;;
70213;SDS011;60138;55.808;37.078;2022-07-29T12:47:24;2.63;;;0.70;;
70213;SDS011;60138;55.808;37.078;2022-07-29T12:49:50;1.92;;;0.82;;
70213;SDS011;60138;55.808;37.078;2022-07-29T12:52:22;3.45;;;0.60;;
70213;SDS011;60138;55.808;37.078;2022-07-29T12:54:51;2.03;;;0.70;;
70213;SDS011;60138;55.808;37.078;2022-07-29T12:57:17;1.93;;;0.60;;
70213;SDS011;60138;55.808;37.078;2022-07-29T12:59:42;2.73;;;0.80;;
70213;SDS011;60138;55.808;37.078;2022-07-29T13:02:20;2.33;;;0.50;;
70213;SDS011;60138;55.808;37.078;2022-07-29T13:04:54;1.70;;;0.60;;
70213;SDS011;60138;55.808;37.078;2022-07-29T13:07:25;2.60;;;0.75;;
70213;SDS011;60138;55.808;37.078;2022-07-29T13:15:32;2.08;;;0.70;;
70213;SDS011;60138;55.808;37.078;2022-07-29T13:17:58;1.73;;;0.65;;
70213;SDS011;60138;55.808;37.078;2022-07-29T13:20:25;2.70;;;0.70;;
70213;SDS011;60138;55.808;37.078;2022-07-29T13:22:52;3.77;;;0.67;;
70213;SDS011;60138;55.808;37.078;2022-07-29T13:25:29;1.63;;;0.60;;
70213;SDS011;60138;55.808;37.078;2022-07-29T13:27:57;5.05;;;0.70;;
70213;SDS011;60138;55.808;37.078;2022-07-29T13:30:24;2.28;;;0.60;;
70213;SDS011;60138;55.808;37.078;2022-07-29T13:32:51;2.05;;;0.63;;
70213;SDS011;60138;55.808;37.078;2022-07-29T13:35:17;2.73;;;0.57;;
70213;SDS011;60138;55.808;37.078;2022-07-29T13:37:43;2.55;;;0.52;;
70213;SDS011;60138;55.808;37.078;2022-07-29T13:40:09;2.67;;;0.50;;
70213;SDS011;60138;55.808;37.078;2022-07-29T13:42:36;4.13;;;0.68;;
70213;SDS011;60138;55.808;37.078;2022-07-29T13:45:02;2.60;;;0.70;;
70213;SDS011;60138;55.808;37.078;2022-07-29T13:47:30;3.20;;;1.00;;
70213;SDS011;60138;55.808;37.078;2022-07-29T13:49:56;2.10;;;0.80;;
70213;SDS011;60138;55.808;37.078;2022-07-29T13:52:21;3.53;;;0.63;;
70213;SDS011;60138;55.808;37.078;2022-07-29T13:54:47;2.50;;;0.60;;
70213;SDS011;60138;55.808;37.078;2022-07-29T13:57:13;2.47;;;0.70;;
70213;SDS011;60138;55.808;37.078;2022-07-29T13:59:42;1.90;;;0.60;;
70213;SDS011;60138;55.808;37.078;2022-07-29T14:02:09;2.05;;;0.60;;
70213;SDS011;60138;55.808;37.078;2022-07-29T14:04:35;2.05;;;0.70;;
70213;SDS011;60138;55.808;37.078;2022-07-29T14:07:02;2.92;;;0.47;;
70213;SDS011;60138;55.808;37.078;2022-07-29T14:09:27;2.35;;;0.80;;
70213;SDS011;60138;55.808;37.078;2022-07-29T14:11:53;3.33;;;0.90;;
70213;SDS011;60138;55.808;37.078;2022-07-29T14:14:19;3.78;;;0.60;;
70213;SDS011;60138;55.808;37.078;2022-07-29T14:16:45;2.73;;;0.60;;
70213;SDS011;60138;55.808;37.078;2022-07-29T14:19:11;2.40;;;0.55;;
70213;SDS011;60138;55.808;37.078;2022-07-29T14:21:37;5.15;;;0.80;;
70213;SDS011;60138;55.808;37.078;2022-07-29T14:24:04;3.10;;;0.70;;
70213;SDS011;60138;55.808;37.078;2022-07-29T14:26:30;3.03;;;0.60;;
70213;SDS011;60138;55.808;37.078;2022-07-29T14:28:57;3.67;;;0.98;;
70213;SDS011;60138;55.808;37.078;2022-07-29T14:31:23;4.72;;;1.17;;
70213;SDS011;60138;55.808;37.078;2022-07-29T14:33:49;3.27;;;0.80;;
70213;SDS011;60138;55.808;37.078;2022-07-29T14:36:15;2.30;;;0.80;;
70213;SDS011;60138;55.808;37.078;2022-07-29T14:38:40;4.43;;;1.23;;
70213;SDS011;60138;55.808;37.078;2022-07-29T14:41:06;2.08;;;0.80;;
70213;SDS011;60138;55.808;37.078;2022-07-29T14:43:33;2.83;;;0.93;;
70213;SDS011;60138;55.808;37.078;2022-07-29T14:46:00;2.30;;;1.00;;
70213;SDS011;60138;55.808;37.078;2022-07-29T14:48:26;4.95;;;0.93;;
70213;SDS011;60138;55.808;37.078;2022-07-29T14:50:52;4.75;;;1.20;;
70213;SDS011;60138;55.808;37.078;2022-07-29T14:53:18;14.13;;;1.80;;
70213;SDS011;60138;55.808;37.078;2022-07-29T14:55:43;58.42;;;6.00;;
70213;SDS011;60138;55.808;37.078;2022-07-29T14:58:09;42.17;;;4.27;;
70213;SDS011;60138;55.808;37.078;2022-07-29T15:00:35;24.15;;;2.40;;
70213;SDS011;60138;55.808;37.078;2022-07-29T15:03:01;10.93;;;1.30;;
70213;SDS011;60138;55.808;37.078;2022-07-29T15:05:27;11.30;;;1.07;;
70213;SDS011;60138;55.808;37.078;2022-07-29T15:07:52;9.60;;;1.55;;
70213;SDS011;60138;55.808;37.078;2022-07-29T15:10:18;13.83;;;1.77;;
70213;SDS011;60138;55.808;37.078;2022-07-29T15:12:44;8.80;;;1.52;;
70213;SDS011;60138;55.808;37.078;2022-07-29T15:15:10;9.17;;;1.50;;
70213;SDS011;60138;55.808;37.078;2022-07-29T15:17:36;18.07;;;2.57;;
70213;SDS011;60138;55.808;37.078;2022-07-29T15:20:02;14.77;;;3.53;;
70213;SDS011;60138;55.808;37.078;2022-07-29T15:22:29;12.60;;;3.10;;
70213;SDS011;60138;55.808;37.078;2022-07-29T15:24:54;13.30;;;2.50;;